Time;durP1;ratioP1;P1;durP2;ratioP2;P2;SDS_P1;SDS_P2;PMS_P1;PMS_P2;Temp;Humidity;BMP_temperature;BMP_pressure;BME280_temperature;BME280_humidity;BME280_pressure;Samples;Min_cycle;Max_cycle;Signal;HPM_P1;HPM_P2
2021/05/26 00:00:07;;;;;;;1.57;0.80;;;;;;;8.00;80.12;93971.88;5076005;28;20206;-77
2021/05/26 00:02:33;;;;;;;2.27;1.03;;;;;;;8.11;83.19;93973.22;5075910;28;20661;-75
2021/05/26 00:04:59;;;;;;;6.30;0.90;;;;;;;8.26;79.25;93971.44;5075960;28;20229;-78
2021/05/26 00:07:25;;;;;;;4.50;0.90;;;;;;;8.27;79.86;93959.22;5075950;28;20654;-77
2021/05/26 00:09:51;;;;;;;3.50;1.03;;;;;;;8.39;77.84;93952.56;5075670;28;20653;-77
2021/05/26 00:12:18;;;;;;;3.03;0.80;;;;;;;8.41;78.07;93958.41;5075691;28;20232;-76
2021/05/26 00:14:44;;;;;;;3.33;1.00;;;;;;;8.34;77.59;93945.31;5075669;28;20547;-76
2021/05/26 00:17:11;;;;;;;3.90;1.27;;;;;;;8.41;77.41;93942.78;5075870;28;20229;-77
2021/05/26 00:19:39;;;;;;;3.47;0.90;;;;;;;8.35;78.38;93948.72;5075742;28;20203;-76
2021/05/26 00:22:04;;;;;;;1.43;0.80;;;;;;;8.27;80.22;93947.00;5075511;28;20210;-76
2021/05/26 00:24:31;;;;;;;5.00;0.73;;;;;;;8.37;78.51;93935.53;5075246;28;20230;-76
2021/05/26 00:26:56;;;;;;;6.00;0.90;;;;;;;8.33;78.80;93932.50;5075658;28;20213;-76
2021/05/26 00:29:23;;;;;;;2.30;0.90;;;;;;;8.44;77.56;93934.66;5075430;28;20203;-76
2021/05/26 00:31:49;;;;;;;3.43;0.90;;;;;;;8.55;76.63;93933.34;5075526;28;20660;-76
2021/05/26 00:34:15;;;;;;;5.53;0.97;;;;;;;8.66;78.69;93916.44;5075317;28;20196;-77
2021/05/26 00:36:41;;;;;;;1.67;0.70;;;;;;;8.72;76.96;93925.31;5075226;28;20211;-76
2021/05/26 00:39:07;;;;;;;4.60;0.97;;;;;;;8.73;75.99;93919.94;5075211;28;20207;-76
2021/05/26 00:41:33;;;;;;;1.57;0.80;;;;;;;8.65;75.51;93920.06;5075631;28;20202;-76
2021/05/26 00:44:00;;;;;;;3.07;0.80;;;;;;;8.67;76.58;93908.44;5077167;28;20669;-76
2021/05/26 00:46:27;;;;;;;2.40;0.90;;;;;;;8.72;76.79;93918.31;5075317;28;20234;-77
2021/05/26 00:48:53;;;;;;;3.70;0.90;;;;;;;8.78;76.95;93922.78;5074599;28;20203;-76
2021/05/26 00:51:19;;;;;;;3.43;0.80;;;;;;;8.77;77.78;93918.56;5074543;28;20667;-76
2021/05/26 00:53:45;;;;;;;5.90;1.07;;;;;;;8.61;83.67;93910.97;5075193;28;20203;-76
2021/05/26 00:56:12;;;;;;;2.37;1.00;;;;;;;8.44;84.87;93919.03;5074981;28;20298;-76
2021/05/26 00:58:39;;;;;;;3.27;1.13;;;;;;;8.31;87.38;93924.88;5074849;28;20438;-76
2021/05/26 01:01:05;;;;;;;6.60;1.00;;;;;;;8.19;91.35;93913.31;5074999;28;20444;-76
2021/05/26 01:03:33;;;;;;;4.37;1.00;;;;;;;7.90;99.02;93922.75;5074762;28;20209;-76
2021/05/26 01:05:59;;;;;;;5.30;0.93;;;;;;;7.73;100.00;93919.53;5074644;28;20673;-76
2021/05/26 01:08:25;;;;;;;4.57;1.00;;;;;;;7.62;100.00;93919.97;5074825;28;20199;-77
2021/05/26 01:10:51;;;;;;;1.53;0.87;;;;;;;7.55;100.00;93919.09;5074801;28;20210;-77
2021/05/26 01:13:19;;;;;;;2.87;1.10;;;;;;;7.45;100.00;93908.94;5074546;28;20203;-75
2021/05/26 01:15:45;;;;;;;2.10;1.07;;;;;;;7.44;100.00;93916.91;5074920;28;20255;-76
2021/05/26 01:18:18;;;;;;;2.67;1.20;;;;;;;7.31;100.00;93907.13;5074492;28;20221;-76
2021/05/26 01:20:46;;;;;;;2.37;0.90;;;;;;;7.23;100.00;93898.44;5074542;28;20198;-77
2021/05/26 01:23:16;;;;;;;2.60;1.07;;;;;;;7.13;100.00;93897.09;5074254;28;20260;-77
2021/05/26 01:25:43;;;;;;;2.80;1.20;;;;;;;7.06;100.00;93888.38;5074257;28;20214;-76
2021/05/26 01:28:10;;;;;;;1.73;0.80;;;;;;;6.98;100.00;93882.28;5074643;28;20251;-76
2021/05/26 01:30:37;;;;;;;3.23;1.27;;;;;;;6.98;100.00;93878.91;5074467;28;20238;-77
2021/05/26 01:33:03;;;;;;;9.03;1.30;;;;;;;7.00;100.00;93882.91;5074426;28;20210;-77
2021/05/26 01:35:29;;;;;;;4.37;1.17;;;;;;;6.98;100.00;93877.09;5074385;28;20207;-77
2021/05/26 01:37:55;;;;;;;3.63;1.10;;;;;;;6.91;100.00;93876.19;5074096;28;20257;-76
2021/05/26 01:40:21;;;;;;;3.33;1.07;;;;;;;6.90;100.00;93868.56;5073971;28;20198;-76
2021/05/26 01:42:48;;;;;;;5.43;1.10;;;;;;;6.83;100.00;93866.69;5073959;28;20753;-76
2021/05/26 01:45:16;;;;;;;5.37;1.10;;;;;;;6.83;100.00;93856.31;5074044;28;20236;-77
2021/05/26 01:47:44;;;;;;;3.10;1.30;;;;;;;6.83;100.00;93858.09;5074049;28;20207;-76
2021/05/26 01:50:20;;;;;;;3.53;1.13;;;;;;;6.85;100.00;93846.53;5073897;28;20199;-75
2021/05/26 01:52:47;;;;;;;9.07;1.50;;;;;;;6.81;100.00;93849.66;5073881;28;20214;-76
2021/05/26 01:55:13;;;;;;;2.70;1.07;;;;;;;6.78;100.00;93856.03;5073933;28;20695;-76
2021/05/26 01:57:42;;;;;;;2.70;1.30;;;;;;;6.75;100.00;93858.16;5073916;28;20202;-76
2021/05/26 02:00:09;;;;;;;8.00;1.70;;;;;;;6.77;100.00;93843.22;5073632;28;20242;-76
2021/05/26 02:02:35;;;;;;;2.73;1.20;;;;;;;6.73;100.00;93847.97;5073469;28;20228;-75
2021/05/26 02:05:01;;;;;;;4.40;1.97;;;;;;;6.76;100.00;93851.97;5073534;28;20271;-76
2021/05/26 02:07:27;;;;;;;1.53;0.93;;;;;;;6.77;100.00;93845.81;5073495;28;20690;-75
2021/05/26 02:09:53;;;;;;;2.43;1.20;;;;;;;6.78;100.00;93845.63;5073651;28;20194;-75
2021/05/26 02:12:22;;;;;;;1.93;0.93;;;;;;;6.70;100.00;93842.31;5073494;28;20203;-76
2021/05/26 02:14:50;;;;;;;3.27;1.20;;;;;;;6.75;100.00;93843.41;5073491;28;20199;-76
2021/05/26 02:17:17;;;;;;;4.40;1.00;;;;;;;6.84;100.00;93849.31;5073463;28;20226;-75
2021/05/26 02:19:43;;;;;;;1.77;1.03;;;;;;;6.86;100.00;93847.34;5073290;28;20199;-77
2021/05/26 02:22:10;;;;;;;2.53;1.00;;;;;;;6.86;100.00;93844.75;5073140;28;20561;-75
2021/05/26 02:24:36;;;;;;;4.67;1.20;;;;;;;6.88;100.00;93844.56;5073081;28;20719;-76
2021/05/26 02:27:02;;;;;;;4.03;1.20;;;;;;;6.91;100.00;93849.41;5073438;28;20198;-77
2021/05/26 02:29:27;;;;;;;5.13;1.10;;;;;;;6.87;100.00;93848.16;5073229;28;20199;-76
2021/05/26 02:31:55;;;;;;;3.30;1.30;;;;;;;6.95;100.00;93842.91;5073253;28;20210;-77
2021/05/26 02:34:21;;;;;;;2.27;1.00;;;;;;;7.06;100.00;93836.47;5073165;28;20195;-77
2021/05/26 02:36:47;;;;;;;4.87;1.20;;;;;;;7.08;100.00;93842.28;5073142;28;20284;-76
2021/05/26 02:39:13;;;;;;;3.80;1.00;;;;;;;7.08;100.00;93837.09;5073417;28;20195;-77
2021/05/26 02:41:39;;;;;;;2.13;1.00;;;;;;;7.06;100.00;93836.47;5075706;28;20554;-76
2021/05/26 02:44:05;;;;;;;3.67;1.13;;;;;;;7.08;100.00;93835.31;5073253;28;20206;-77
2021/05/26 02:46:31;;;;;;;1.80;1.10;;;;;;;7.08;100.00;93831.91;5073103;28;20255;-75
2021/05/26 02:48:59;;;;;;;2.77;1.10;;;;;;;7.06;100.00;93831.28;5073008;28;20835;-76
2021/05/26 02:51:25;;;;;;;4.73;1.50;;;;;;;6.99;100.00;93839.75;5073135;28;20230;-76
2021/05/26 02:53:51;;;;;;;1.60;1.10;;;;;;;6.89;100.00;93844.41;5073076;28;20194;-76
2021/05/26 02:56:17;;;;;;;5.83;1.23;;;;;;;6.93;100.00;93840.47;5073000;28;20198;-76
2021/05/26 02:58:43;;;;;;;6.20;1.40;;;;;;;7.02;100.00;93836.00;5072932;28;20264;-75
2021/05/26 03:01:09;;;;;;;5.17;1.37;;;;;;;7.17;100.00;93842.03;5072830;28;20562;-76
2021/05/26 03:03:35;;;;;;;5.53;1.30;;;;;;;7.04;100.00;93842.66;5072756;28;20203;-77
2021/05/26 03:06:02;;;;;;;6.70;1.10;;;;;;;6.95;100.00;93841.09;5072900;28;20227;-76
2021/05/26 03:08:28;;;;;;;5.20;1.30;;;;;;;6.88;100.00;93842.81;5072821;28;20222;-75
2021/05/26 03:10:56;;;;;;;1.77;1.27;;;;;;;6.84;100.00;93837.16;5072997;28;20222;-76
2021/05/26 03:13:23;;;;;;;1.30;1.20;;;;;;;6.81;100.00;93844.47;5074475;28;20199;-76
2021/05/26 03:15:50;;;;;;;6.20;1.23;;;;;;;6.77;100.00;93844.00;5076779;28;20209;-76
2021/05/26 03:18:16;;;;;;;3.97;0.93;;;;;;;6.73;100.00;93842.78;5076848;28;20202;-76
2021/05/26 03:20:42;;;;;;;3.33;1.20;;;;;;;6.71;100.00;93844.72;5076753;28;20203;-76
2021/05/26 03:23:09;;;;;;;4.53;1.47;;;;;;;6.70;100.00;93842.31;5076535;28;20570;-75
2021/05/26 03:25:35;;;;;;;3.13;1.10;;;;;;;6.72;100.00;93835.16;5076730;28;20226;-76
2021/05/26 03:28:01;;;;;;;3.60;1.40;;;;;;;6.72;100.00;93828.16;5076687;28;20206;-76
2021/05/26 03:30:28;;;;;;;3.47;1.20;;;;;;;6.67;100.00;93833.88;5076672;28;20238;-76
2021/05/26 03:32:54;;;;;;;5.40;1.40;;;;;;;6.64;100.00;93826.47;5076754;28;20278;-76
2021/05/26 03:35:20;;;;;;;6.87;1.50;;;;;;;6.62;100.00;93823.22;5076524;28;20210;-77
2021/05/26 03:37:49;;;;;;;5.40;1.20;;;;;;;6.65;100.00;93815.09;5076530;28;20211;-77
2021/05/26 03:40:17;;;;;;;4.97;1.60;;;;;;;6.70;100.00;93818.97;5076659;28;20207;-76
2021/05/26 03:42:44;;;;;;;2.00;1.37;;;;;;;6.67;100.00;93817.50;5076595;28;20209;-76
2021/05/26 03:45:12;;;;;;;5.87;1.50;;;;;;;6.67;100.00;93820.91;5076077;28;20750;-77
2021/05/26 03:47:38;;;;;;;6.20;1.23;;;;;;;6.63;100.00;93816.28;5076460;28;20203;-77
2021/05/26 03:50:06;;;;;;;3.70;1.40;;;;;;;6.70;100.00;93816.38;5076390;28;20233;-76
2021/05/26 03:52:32;;;;;;;3.67;1.40;;;;;;;6.67;100.00;93818.31;5076216;28;20229;-76
2021/05/26 03:54:58;;;;;;;4.30;1.30;;;;;;;6.72;100.00;93810.00;5076073;28;20206;-76
2021/05/26 03:57:25;;;;;;;3.33;1.20;;;;;;;6.74;100.00;93802.84;5076041;28;20289;-76
2021/05/26 03:59:51;;;;;;;4.83;1.70;;;;;;;6.78;100.00;93803.34;5075896;28;20263;-76
2021/05/26 04:02:17;;;;;;;4.83;1.30;;;;;;;6.71;100.00;93802.41;5076132;28;20198;-77
2021/05/26 04:04:43;;;;;;;3.43;1.27;;;;;;;6.66;100.00;93802.91;5075972;28;20739;-77
2021/05/26 04:07:09;;;;;;;5.40;1.93;;;;;;;6.65;100.00;93799.53;5075886;28;20731;-77
2021/05/26 04:09:35;;;;;;;5.97;1.40;;;;;;;6.69;100.00;93802.56;5075969;28;20198;-76
2021/05/26 04:12:01;;;;;;;8.67;1.90;;;;;;;6.73;100.00;93788.28;5075815;28;20675;-77
2021/05/26 04:14:27;;;;;;;4.93;1.77;;;;;;;6.74;100.00;93787.28;5075643;28;20198;-76
2021/05/26 04:16:53;;;;;;;5.83;2.00;;;;;;;6.74;100.00;93782.09;5075889;28;20274;-77
2021/05/26 04:19:19;;;;;;;6.80;1.47;;;;;;;6.75;100.00;93786.31;5075631;28;20562;-77
2021/05/26 04:21:45;;;;;;;3.50;1.40;;;;;;;6.76;100.00;93774.13;5075750;28;20224;-77
2021/05/26 04:24:11;;;;;;;6.47;1.50;;;;;;;6.76;100.00;93771.53;5075185;28;20266;-77
2021/05/26 04:26:37;;;;;;;3.73;1.60;;;;;;;6.80;100.00;93771.03;5075449;28;20243;-76
2021/05/26 04:29:04;;;;;;;6.38;1.50;;;;;;;6.79;100.00;93768.59;5074904;28;20441;-75
2021/05/26 04:31:30;;;;;;;4.87;1.80;;;;;;;6.80;100.00;93765.84;5075422;28;20252;-77
2021/05/26 04:33:56;;;;;;;3.37;1.67;;;;;;;6.80;100.00;93765.03;5075391;28;20293;-76
2021/05/26 04:36:22;;;;;;;5.47;1.70;;;;;;;6.81;100.00;93758.84;5075484;28;20226;-76
2021/05/26 04:38:48;;;;;;;4.60;1.43;;;;;;;6.84;100.00;93750.72;5075386;28;20672;-76
2021/05/26 04:41:14;;;;;;;3.23;1.30;;;;;;;6.83;100.00;93751.72;5075310;28;20194;-76
2021/05/26 04:43:40;;;;;;;7.13;1.67;;;;;;;6.81;100.00;93753.66;5075122;28;20203;-77
2021/05/26 04:46:06;;;;;;;4.87;1.50;;;;;;;6.81;100.00;93761.44;5075326;28;20226;-76
2021/05/26 04:48:33;;;;;;;2.60;1.23;;;;;;;6.81;100.00;93756.25;5075264;28;20280;-76
2021/05/26 04:50:59;;;;;;;4.67;1.47;;;;;;;6.82;100.00;93758.66;5077616;28;20203;-76
2021/05/26 04:53:25;;;;;;;8.03;1.83;;;;;;;6.86;100.00;93761.72;5075189;28;20252;-75
2021/05/26 04:55:51;;;;;;;7.63;1.47;;;;;;;6.91;100.00;93748.19;5075150;28;20194;-76
2021/05/26 04:58:17;;;;;;;3.83;1.60;;;;;;;7.01;100.00;93736.59;5075006;28;20234;-76
2021/05/26 05:00:43;;;;;;;9.53;2.00;;;;;;;7.07;100.00;93734.25;5074862;28;20535;-77
2021/05/26 05:03:09;;;;;;;3.20;1.57;;;;;;;7.04;100.00;93745.78;5074944;28;20202;-76
2021/05/26 05:05:37;;;;;;;3.93;1.33;;;;;;;7.06;100.00;93738.66;5074637;28;20706;-75
2021/05/26 05:08:05;;;;;;;3.60;1.33;;;;;;;7.10;100.00;93744.28;5074704;28;20645;-75
2021/05/26 05:10:32;;;;;;;4.13;1.30;;;;;;;7.13;100.00;93743.94;5074695;28;20199;-76
2021/05/26 05:12:58;;;;;;;3.80;1.30;;;;;;;7.09;100.00;93746.06;5074588;28;20677;-76
2021/05/26 05:15:24;;;;;;;3.20;1.30;;;;;;;7.22;100.00;93748.81;5074791;28;20289;-76
2021/05/26 05:17:50;;;;;;;5.17;1.30;;;;;;;7.24;100.00;93746.03;5074925;28;20195;-77
2021/05/26 05:20:19;;;;;;;1.70;1.17;;;;;;;7.30;100.00;93747.94;5074653;28;20661;-76
2021/05/26 05:22:46;;;;;;;6.90;1.40;;;;;;;7.29;100.00;93746.31;5074234;28;20698;-76
2021/05/26 05:25:13;;;;;;;4.23;1.37;;;;;;;7.29;100.00;93735.91;5074186;28;20662;-77
2021/05/26 05:27:39;;;;;;;9.10;1.57;;;;;;;7.32;100.00;93734.78;5074428;28;20206;-77
2021/05/26 05:30:07;;;;;;;3.97;1.40;;;;;;;7.35;100.00;93732.59;5074500;28;20203;-77
2021/05/26 05:32:33;;;;;;;4.60;1.03;;;;;;;7.29;100.00;93728.13;5074363;28;20203;-77
2021/05/26 05:34:59;;;;;;;5.77;1.20;;;;;;;7.33;100.00;93723.41;5073956;28;20570;-75
2021/05/26 05:37:25;;;;;;;4.13;1.37;;;;;;;7.45;100.00;93724.53;5073795;28;20203;-76
2021/05/26 05:39:53;;;;;;;3.20;1.30;;;;;;;7.48;100.00;93718.19;5073964;28;20202;-76
2021/05/26 05:42:19;;;;;;;5.60;1.40;;;;;;;7.52;100.00;93722.00;5074421;28;20198;-76
2021/05/26 05:44:45;;;;;;;4.90;1.60;;;;;;;7.56;100.00;93716.28;5073534;28;20437;-78
2021/05/26 05:47:11;;;;;;;3.33;1.50;;;;;;;7.58;100.00;93713.50;5073820;28;20226;-76
2021/05/26 05:49:37;;;;;;;4.50;1.70;;;;;;;7.64;100.00;93712.75;5073960;28;20213;-78
2021/05/26 05:52:04;;;;;;;3.30;1.20;;;;;;;7.63;100.00;93705.13;5073927;28;20198;-76
2021/05/26 05:54:30;;;;;;;4.55;1.50;;;;;;;7.69;100.00;93712.19;5073406;28;20438;-76
2021/05/26 05:56:57;;;;;;;7.33;1.80;;;;;;;7.78;100.00;93708.50;5073941;28;20558;-77
2021/05/26 05:59:23;;;;;;;5.93;1.70;;;;;;;7.81;100.00;93710.75;5073843;28;20211;-77
2021/05/26 06:01:49;;;;;;;6.13;1.40;;;;;;;7.92;100.00;93707.63;5073805;28;20203;-76
2021/05/26 06:04:15;;;;;;;8.90;1.80;;;;;;;7.95;100.00;93709.06;5073656;28;20664;-76
2021/05/26 06:06:41;;;;;;;4.87;1.40;;;;;;;7.99;100.00;93702.50;5073493;28;20233;-76
2021/05/26 06:09:07;;;;;;;5.73;1.50;;;;;;;8.07;100.00;93707.56;5073407;28;20289;-76
2021/05/26 06:11:33;;;;;;;8.07;1.63;;;;;;;8.10;100.00;93707.19;5073627;28;20210;-76
2021/05/26 06:14:04;;;;;;;8.87;1.50;;;;;;;8.20;100.00;93693.09;5073602;28;20203;-76
2021/05/26 06:16:32;;;;;;;6.50;1.70;;;;;;;8.27;100.00;93696.53;5073443;28;20211;-77
2021/05/26 06:18:58;;;;;;;7.43;1.37;;;;;;;8.33;100.00;93695.78;5073376;28;20230;-76
2021/05/26 06:21:24;;;;;;;8.67;1.40;;;;;;;8.30;100.00;93689.16;5073232;28;20658;-77
2021/05/26 06:23:50;;;;;;;4.97;1.60;;;;;;;8.34;100.00;93689.56;5073080;28;20704;-76
2021/05/26 06:26:16;;;;;;;6.63;1.40;;;;;;;8.27;100.00;93693.94;5073383;28;20222;-76
2021/05/26 06:28:42;;;;;;;7.07;1.80;;;;;;;8.22;100.00;93693.69;5073316;28;20565;-77
2021/05/26 06:31:09;;;;;;;5.90;1.80;;;;;;;8.33;100.00;93680.19;5073242;28;20199;-77
2021/05/26 06:33:35;;;;;;;5.40;1.93;;;;;;;8.39;100.00;93682.00;5073092;28;20654;-76
2021/05/26 06:36:01;;;;;;;4.97;1.47;;;;;;;8.51;100.00;93675.34;5073286;28;20202;-76
2021/05/26 06:38:27;;;;;;;7.30;2.03;;;;;;;8.68;100.00;93678.44;5071792;28;20470;-76
2021/05/26 06:40:53;;;;;;;13.00;3.40;;;;;;;8.63;100.00;93678.22;5073212;28;20540;-76
2021/05/26 06:43:19;;;;;;;9.87;2.53;;;;;;;8.67;100.00;93682.03;5073572;28;20207;-76
2021/05/26 06:45:45;;;;;;;14.63;2.30;;;;;;;8.56;100.00;93679.16;5076232;28;20693;-76
2021/05/26 06:48:12;;;;;;;5.20;1.80;;;;;;;8.43;100.00;93693.69;5073054;28;20203;-76
2021/05/26 06:50:38;;;;;;;8.97;2.03;;;;;;;8.38;100.00;93697.84;5072811;28;20198;-76
2021/05/26 06:53:04;;;;;;;9.60;1.80;;;;;;;8.40;100.00;93695.84;5073044;28;20206;-76
2021/05/26 06:55:30;;;;;;;9.70;1.93;;;;;;;8.41;100.00;93687.84;5073105;28;20202;-76
2021/05/26 06:57:56;;;;;;;10.10;2.10;;;;;;;8.41;100.00;93690.44;5072816;28;20198;-75
2021/05/26 07:00:22;;;;;;;10.77;2.03;;;;;;;8.41;100.00;93684.41;5073164;28;20210;-76
2021/05/26 07:02:48;;;;;;;12.90;1.93;;;;;;;8.45;100.00;93691.69;5072880;28;20199;-76
2021/05/26 07:05:15;;;;;;;10.63;1.87;;;;;;;8.52;100.00;93692.53;5072541;28;20723;-76
2021/05/26 07:07:41;;;;;;;5.67;1.60;;;;;;;8.50;100.00;93678.91;5073138;28;20210;-76
2021/05/26 07:10:07;;;;;;;9.37;1.77;;;;;;;8.64;100.00;93673.81;5072831;28;20681;-77
2021/05/26 07:12:34;;;;;;;7.20;1.93;;;;;;;8.72;100.00;93673.66;5072843;28;20271;-76
2021/05/26 07:14:59;;;;;;;7.00;1.93;;;;;;;8.84;100.00;93674.75;5072868;28;20214;-76
2021/05/26 07:17:25;;;;;;;5.83;1.67;;;;;;;8.87;100.00;93671.72;5072782;28;20554;-76
2021/05/26 07:19:51;;;;;;;12.00;2.30;;;;;;;8.92;100.00;93678.16;5072252;28;20446;-76
2021/05/26 07:22:18;;;;;;;9.23;1.80;;;;;;;8.85;100.00;93675.53;5072641;28;20452;-78
2021/05/26 07:24:44;;;;;;;10.83;2.47;;;;;;;8.79;100.00;93682.31;5072744;28;20202;-77
2021/05/26 07:27:10;;;;;;;10.73;2.07;;;;;;;8.70;100.00;93689.47;5072393;28;20280;-77
2021/05/26 07:29:36;;;;;;;10.57;2.10;;;;;;;8.74;100.00;93689.06;5072598;28;20205;-77
2021/05/26 07:32:03;;;;;;;10.07;1.67;;;;;;;8.73;100.00;93690.88;5072620;28;20198;-76
2021/05/26 07:34:29;;;;;;;7.73;2.40;;;;;;;8.70;100.00;93696.47;5072580;28;20558;-78
2021/05/26 07:36:55;;;;;;;5.70;1.63;;;;;;;8.70;100.00;93697.25;5072553;28;20199;-77
2021/05/26 07:39:24;;;;;;;7.53;2.53;;;;;;;8.79;100.00;93697.94;5072611;28;20207;-77
2021/05/26 07:41:50;;;;;;;5.97;2.10;;;;;;;8.83;100.00;93704.34;5072658;28;20207;-76
2021/05/26 07:44:16;;;;;;;6.90;2.00;;;;;;;8.85;100.00;93699.75;5072601;28;20203;-77
2021/05/26 07:46:42;;;;;;;12.33;2.30;;;;;;;8.87;100.00;93702.16;5072435;28;20231;-76
2021/05/26 07:49:10;;;;;;;9.60;2.17;;;;;;;9.03;100.00;93706.28;5072256;28;20264;-77
2021/05/26 07:51:38;;;;;;;7.60;1.73;;;;;;;9.01;100.00;93706.47;5072501;28;20198;-76
2021/05/26 07:54:06;;;;;;;8.53;1.63;;;;;;;9.17;100.00;93714.94;5072428;28;20211;-77
2021/05/26 07:56:35;;;;;;;16.27;2.07;;;;;;;9.31;100.00;93705.38;5072356;28;20222;-76
2021/05/26 07:59:01;;;;;;;7.37;1.63;;;;;;;9.48;100.00;93692.84;5073343;28;20203;-77
2021/05/26 08:01:27;;;;;;;10.67;2.23;;;;;;;9.61;99.61;93691.06;5075911;28;20669;-77
2021/05/26 08:03:53;;;;;;;6.27;2.00;;;;;;;9.69;100.00;93689.28;5076225;28;20198;-77
2021/05/26 08:06:19;;;;;;;7.93;2.33;;;;;;;9.89;99.57;93684.94;5076020;28;20646;-77
2021/05/26 08:08:45;;;;;;;5.77;2.00;;;;;;;9.94;100.00;93692.97;5075952;28;20772;-77
2021/05/26 08:11:10;;;;;;;11.00;1.63;;;;;;;9.87;100.00;93692.13;5075850;28;20203;-76
2021/05/26 08:13:37;;;;;;;8.73;2.00;;;;;;;9.77;97.64;93674.25;5075763;28;20199;-78
2021/05/26 08:16:04;;;;;;;7.93;2.17;;;;;;;9.92;97.24;93681.91;5075787;28;20203;-77
2021/05/26 08:18:30;;;;;;;9.67;2.77;;;;;;;9.75;98.86;93675.47;5075641;28;20526;-76
2021/05/26 08:20:56;;;;;;;4.53;1.80;;;;;;;9.88;96.58;93683.31;5075808;28;20202;-77
2021/05/26 08:23:23;;;;;;;9.77;1.93;;;;;;;9.89;96.92;93676.28;5075523;28;20288;-78
2021/05/26 08:25:49;;;;;;;7.33;1.93;;;;;;;10.01;98.30;93674.72;5074924;28;20272;-77
2021/05/26 08:28:15;;;;;;;13.27;2.07;;;;;;;10.17;96.03;93670.88;5087331;28;20198;-77
2021/05/26 08:30:44;;;;;;;5.43;1.50;;;;;;;10.23;96.66;93680.53;5095542;28;20213;-78
2021/05/26 08:33:11;;;;;;;5.00;1.73;;;;;;;10.04;95.17;93670.88;5095348;28;20665;-78
2021/05/26 08:35:37;;;;;;;5.00;1.63;;;;;;;10.05;96.19;93659.47;5095474;28;20740;-77
2021/05/26 08:38:03;;;;;;;3.97;1.80;;;;;;;10.32;94.26;93660.28;5095604;28;20198;-77
2021/05/26 08:40:31;;;;;;;6.43;1.60;;;;;;;10.07;93.35;93666.06;5095571;28;20205;-78
2021/05/26 08:42:58;;;;;;;7.23;1.50;;;;;;;10.41;94.10;93674.75;5095401;28;20237;-78
2021/05/26 08:45:25;;;;;;;7.40;1.80;;;;;;;10.60;91.91;93678.34;5093652;28;20443;-79
2021/05/26 08:47:54;;;;;;;4.23;1.70;;;;;;;10.61;92.62;93694.78;5093110;28;20226;-78
2021/05/26 08:50:22;;;;;;;9.83;1.70;;;;;;;10.62;88.14;93688.56;5074662;28;20234;-77
2021/05/26 08:52:51;;;;;;;6.53;1.57;;;;;;;10.29;86.82;93692.78;5074393;28;20292;-76
2021/05/26 08:55:20;;;;;;;9.10;1.43;;;;;;;10.18;84.99;93696.00;5074509;28;20203;-77
2021/05/26 08:57:46;;;;;;;5.83;1.90;;;;;;;10.28;84.20;93706.03;5074807;28;20199;-76
2021/05/26 09:00:13;;;;;;;3.53;1.47;;;;;;;10.47;82.67;93704.44;5075103;28;20263;-78
2021/05/26 09:02:39;;;;;;;3.50;1.50;;;;;;;10.22;85.96;93720.66;5075074;28;20288;-77
2021/05/26 09:05:21;;;;;;;7.10;2.13;;;;;;;10.00;88.82;93710.41;5074975;28;20569;-77
2021/05/26 09:07:47;;;;;;;3.07;1.50;;;;;;;10.11;85.15;93716.06;5075203;28;20198;-76
2021/05/26 09:10:13;;;;;;;4.67;1.73;;;;;;;9.94;87.26;93711.22;5073884;28;20202;-77
2021/05/26 09:12:41;;;;;;;6.97;1.60;;;;;;;9.95;86.45;93701.56;5074770;28;20199;-76
2021/05/26 09:15:09;;;;;;;6.87;1.70;;;;;;;10.21;86.02;93692.16;5074722;28;20255;-77
2021/05/26 09:17:35;;;;;;;4.38;1.65;;;;;;;10.16;84.59;93704.00;5073707;28;20434;-76
2021/05/26 09:20:22;;;;;;;6.07;1.30;;;;;;;10.15;85.25;93699.00;5074433;28;20539;-76
2021/05/26 09:23:08;;;;;;;5.47;1.17;;;;;;;9.67;88.35;93706.94;5074188;28;20230;-76
2021/05/26 09:25:36;;;;;;;3.27;1.47;;;;;;;9.87;91.99;93697.34;5074426;28;20226;-76
2021/05/26 09:28:16;;;;;;;7.50;1.50;;;;;;;9.89;90.69;93700.56;5074351;28;20206;-77
2021/05/26 09:30:43;;;;;;;3.67;1.20;;;;;;;9.87;90.05;93710.38;5074373;28;20203;-77
2021/05/26 09:33:22;;;;;;;5.93;1.40;;;;;;;9.68;91.09;93691.09;5074111;28;20240;-76
2021/05/26 09:36:06;;;;;;;4.33;1.40;;;;;;;9.52;92.50;93713.09;5074457;28;20202;-75
2021/05/26 09:38:32;;;;;;;4.53;1.50;;;;;;;9.67;93.58;93714.75;5073987;28;20600;-76
2021/05/26 09:41:07;;;;;;;3.77;1.57;;;;;;;9.50;93.00;93719.50;5074095;28;20199;-77
2021/05/26 09:43:44;;;;;;;3.30;1.40;;;;;;;9.53;93.12;93708.69;5074002;28;20661;-76
2021/05/26 09:46:22;;;;;;;3.27;1.40;;;;;;;9.52;92.09;93717.50;5074208;28;20226;-78
2021/05/26 09:49:05;;;;;;;5.00;1.60;;;;;;;9.68;95.48;93713.75;5074127;28;20207;-75
2021/05/26 09:51:34;;;;;;;2.67;1.50;;;;;;;9.43;93.75;93722.09;5073919;28;20203;-76
2021/05/26 09:54:18;;;;;;;5.50;1.60;;;;;;;9.55;94.60;93707.50;5073721;28;20252;-75
2021/05/26 09:56:46;;;;;;;4.57;1.87;;;;;;;9.54;95.31;93700.69;5074022;28;20203;-76
2021/05/26 09:59:12;;;;;;;5.83;1.33;;;;;;;9.73;94.01;93714.75;5073787;28;20203;-75
2021/05/26 10:01:39;;;;;;;4.50;1.40;;;;;;;9.86;94.50;93719.22;5073741;28;20218;-76
2021/05/26 10:04:06;;;;;;;5.63;1.33;;;;;;;9.85;92.07;93722.03;5073692;28;20245;-76
2021/05/26 10:06:34;;;;;;;4.57;1.33;;;;;;;9.83;91.69;93719.59;5073468;28;20295;-77
2021/05/26 10:09:01;;;;;;;7.80;1.57;;;;;;;10.09;91.60;93723.25;5073805;28;20207;-78
2021/05/26 10:11:29;;;;;;;3.67;1.20;;;;;;;10.25;89.17;93712.44;5073654;28;20236;-77
2021/05/26 10:13:56;;;;;;;4.93;1.27;;;;;;;10.19;86.65;93719.28;5073477;28;20206;-77
2021/05/26 10:16:23;;;;;;;6.57;1.77;;;;;;;10.08;90.92;93732.09;5073441;28;20282;-75
2021/05/26 10:18:49;;;;;;;6.20;1.60;;;;;;;9.85;90.91;93720.22;5073465;28;20205;-76
2021/05/26 10:21:16;;;;;;;7.93;1.30;;;;;;;9.44;90.68;93726.28;5073032;28;20199;-76
2021/05/26 10:23:44;;;;;;;2.73;1.40;;;;;;;9.46;94.55;93732.13;5072999;28;20230;-76
2021/05/26 10:26:09;;;;;;;8.53;1.73;;;;;;;9.49;98.59;93717.88;5073239;28;20219;-76
2021/05/26 10:28:35;;;;;;;4.83;1.27;;;;;;;9.61;95.86;93717.13;5073216;28;20203;-76
2021/05/26 10:31:03;;;;;;;6.43;1.53;;;;;;;9.68;96.26;93716.38;5073295;28;20195;-77
2021/05/26 10:33:52;;;;;;;8.43;1.23;;;;;;;9.66;98.87;93718.34;5073071;28;20206;-77
2021/05/26 10:36:18;;;;;;;5.87;1.43;;;;;;;9.86;95.07;93723.59;5073294;28;20210;-78
2021/05/26 10:38:59;;;;;;;4.20;2.00;;;;;;;10.29;98.47;93720.66;5073160;28;20256;-77
2021/05/26 10:41:25;;;;;;;4.57;1.30;;;;;;;10.35;92.57;93728.53;5073343;28;20198;-77
2021/05/26 10:43:56;;;;;;;5.93;1.50;;;;;;;9.91;93.93;93724.63;5075643;28;20206;-77
2021/05/26 10:46:34;;;;;;;3.17;1.30;;;;;;;10.33;92.95;93721.91;5072967;28;20754;-76
2021/05/26 10:49:01;;;;;;;3.03;1.10;;;;;;;10.71;88.86;93714.28;5073269;28;20305;-76
2021/05/26 10:52:04;;;;;;;3.10;1.10;;;;;;;10.88;89.68;93717.25;5073189;28;20241;-76
2021/05/26 10:54:58;;;;;;;3.37;1.17;;;;;;;11.11;88.93;93714.19;5072801;28;20201;-76
2021/05/26 10:57:24;;;;;;;3.70;1.20;;;;;;;10.92;86.34;93712.44;5072960;28;20199;-76
2021/05/26 11:00:30;;;;;;;1.90;1.00;;;;;;;11.31;87.40;93702.91;5072749;28;20677;-76
2021/05/26 11:03:34;;;;;;;3.70;1.43;;;;;;;11.25;90.36;93701.09;5011142;28;20282;-77
2021/05/26 11:06:02;;;;;;;2.20;1.20;;;;;;;11.04;90.03;93700.38;5072799;28;20218;-76
2021/05/26 11:08:47;;;;;;;5.00;1.13;;;;;;;10.83;90.23;93709.25;5072772;28;20247;-77
2021/05/26 11:11:52;;;;;;;2.03;1.20;;;;;;;10.64;94.51;93705.66;5072731;28;20202;-76
2021/05/26 11:14:29;;;;;;;3.73;1.37;;;;;;;10.27;95.14;93720.88;5072760;28;20217;-77
2021/05/26 11:17:29;;;;;;;2.17;1.20;;;;;;;10.47;91.85;93707.06;5072867;28;20203;-76
2021/05/26 11:20:22;;;;;;;2.77;1.20;;;;;;;10.62;95.33;93712.88;5072633;28;20653;-76
2021/05/26 11:22:49;;;;;;;3.00;1.10;;;;;;;10.72;92.87;93725.50;5072370;28;20775;-77
2021/05/26 11:25:16;;;;;;;3.60;1.43;;;;;;;10.52;91.17;93712.47;5072582;28;20716;-76
2021/05/26 11:27:54;;;;;;;3.23;1.00;;;;;;;10.52;92.51;93713.28;5072430;28;20332;-77
2021/05/26 11:30:23;;;;;;;3.40;1.30;;;;;;;10.50;93.45;93714.50;5072783;28;20558;-77
2021/05/26 11:32:50;;;;;;;3.80;1.30;;;;;;;10.48;94.86;93708.69;5072548;28;20202;-76
2021/05/26 11:35:16;;;;;;;1.23;1.00;;;;;;;10.57;95.08;93704.84;5075788;28;20565;-75
2021/05/26 11:37:42;;;;;;;1.37;1.10;;;;;;;10.77;92.37;93714.47;5076565;28;20211;-77